sensor_id;sensor_type;location;lat;lon;timestamp;temperature;humidity
13389;DHT22;6764;53.250;10.410;2023-03-11T00:00:04;2.00;99.90
13389;DHT22;6764;53.250;10.410;2023-03-11T00:02:33;2.10;99.90
13389;DHT22;6764;53.250;10.410;2023-03-11T00:04:59;2.10;99.90
13389;DHT22;6764;53.250;10.410;2023-03-11T00:07:24;2.10;99.90
13389;DHT22;6764;53.250;10.410;2023-03-11T00:09:50;2.10;99.90
13389;DHT22;6764;53.250;10.410;2023-03-11T00:12:15;2.10;99.90
13389;DHT22;6764;53.250;10.410;2023-03-11T00:14:41;2.00;99.90
13389;DHT22;6764;53.250;10.410;2023-03-11T00:17:06;2.00;99.90
13389;DHT22;6764;53.250;10.410;2023-03-11T00:19:32;1.90;99.90
13389;DHT22;6764;53.250;10.410;2023-03-11T00:22:01;1.90;99.90
13389;DHT22;6764;53.250;10.410;2023-03-11T00:24:27;1.80;99.90
13389;DHT22;6764;53.250;10.410;2023-03-11T00:26:52;1.80;99.90
13389;DHT22;6764;53.250;10.410;2023-03-11T00:29:18;1.90;99.90
13389;DHT22;6764;53.250;10.410;2023-03-11T00:31:44;1.80;99.90
13389;DHT22;6764;53.250;10.410;2023-03-11T00:34:09;1.80;99.90
13389;DHT22;6764;53.250;10.410;2023-03-11T00:36:35;1.90;99.90
13389;DHT22;6764;53.250;10.410;2023-03-11T00:39:02;1.90;99.90
13389;DHT22;6764;53.250;10.410;2023-03-11T00:41:34;1.90;99.90
13389;DHT22;6764;53.250;10.410;2023-03-11T00:43:59;1.90;99.90
13389;DHT22;6764;53.250;10.410;2023-03-11T00:46:25;1.90;99.90
13389;DHT22;6764;53.250;10.410;2023-03-11T00:48:51;1.90;99.90
13389;DHT22;6764;53.250;10.410;2023-03-11T00:51:17;2.00;99.90
13389;DHT22;6764;53.250;10.410;2023-03-11T00:53:43;2.00;99.90
13389;DHT22;6764;53.250;10.410;2023-03-11T00:56:11;1.90;99.90
13389;DHT22;6764;53.250;10.410;2023-03-11T00:58:38;2.00;99.90
13389;DHT22;6764;53.250;10.410;2023-03-11T01:01:25;2.00;99.90
13389;DHT22;6764;53.250;10.410;2023-03-11T01:03:51;2.00;99.90
13389;DHT22;6764;53.250;10.410;2023-03-11T01:06:17;2.00;99.90
13389;DHT22;6764;53.250;10.410;2023-03-11T01:08:42;2.00;99.90
13389;DHT22;6764;53.250;10.410;2023-03-11T01:11:08;2.00;99.90
13389;DHT22;6764;53.250;10.410;2023-03-11T01:13:34;2.00;99.90
13389;DHT22;6764;53.250;10.410;2023-03-11T01:16:00;1.90;99.90
13389;DHT22;6764;53.250;10.410;2023-03-11T01:18:26;1.90;99.90
13389;DHT22;6764;53.250;10.410;2023-03-11T01:20:53;1.90;99.90
13389;DHT22;6764;53.250;10.410;2023-03-11T01:23:19;2.00;99.90
13389;DHT22;6764;53.250;10.410;2023-03-11T01:25:45;1.90;99.90
13389;DHT22;6764;53.250;10.410;2023-03-11T01:28:11;2.00;99.90
13389;DHT22;6764;53.250;10.410;2023-03-11T01:30:38;2.10;99.90
13389;DHT22;6764;53.250;10.410;2023-03-11T01:33:06;2.00;99.90
13389;DHT22;6764;53.250;10.410;2023-03-11T01:35:33;2.00;99.90
13389;DHT22;6764;53.250;10.410;2023-03-11T01:38:00;2.00;99.90
13389;DHT22;6764;53.250;10.410;2023-03-11T01:40:33;2.10;99.90
13389;DHT22;6764;53.250;10.410;2023-03-11T01:43:01;2.10;99.90
13389;DHT22;6764;53.250;10.410;2023-03-11T01:48:13;2.20;99.90
13389;DHT22;6764;53.250;10.410;2023-03-11T01:50:43;2.10;99.90
13389;DHT22;6764;53.250;10.410;2023-03-11T01:53:10;2.10;99.90
13389;DHT22;6764;53.250;10.410;2023-03-11T01:55:36;2.20;99.90
13389;DHT22;6764;53.250;10.410;2023-03-11T01:58:05;2.10;99.90
13389;DHT22;6764;53.250;10.410;2023-03-11T02:00:31;2.10;99.90
13389;DHT22;6764;53.250;10.410;2023-03-11T02:02:59;2.00;99.90
13389;DHT22;6764;53.250;10.410;2023-03-11T02:05:25;2.10;99.90
13389;DHT22;6764;53.250;10.410;2023-03-11T02:07:52;2.00;99.90
13389;DHT22;6764;53.250;10.410;2023-03-11T02:10:19;2.10;99.90
13389;DHT22;6764;53.250;10.410;2023-03-11T02:12:46;2.10;99.90
13389;DHT22;6764;53.250;10.410;2023-03-11T02:15:13;2.00;99.90
13389;DHT22;6764;53.250;10.410;2023-03-11T02:17:40;2.00;99.90
13389;DHT22;6764;53.250;10.410;2023-03-11T02:20:20;1.90;99.90
13389;DHT22;6764;53.250;10.410;2023-03-11T02:22:51;1.90;99.90
13389;DHT22;6764;53.250;10.410;2023-03-11T02:25:36;2.00;99.90
13389;DHT22;6764;53.250;10.410;2023-03-11T02:28:06;2.00;99.90
13389;DHT22;6764;53.250;10.410;2023-03-11T02:30:33;2.00;99.90
13389;DHT22;6764;53.250;10.410;2023-03-11T02:33:00;2.00;99.90
13389;DHT22;6764;53.250;10.410;2023-03-11T02:35:26;2.00;99.90
13389;DHT22;6764;53.250;10.410;2023-03-11T02:37:53;2.00;99.90
13389;DHT22;6764;53.250;10.410;2023-03-11T02:42:49;2.10;99.90
13389;DHT22;6764;53.250;10.410;2023-03-11T02:45:17;2.10;99.90
13389;DHT22;6764;53.250;10.410;2023-03-11T02:47:44;2.10;99.90
13389;DHT22;6764;53.250;10.410;2023-03-11T02:50:13;2.10;99.90
13389;DHT22;6764;53.250;10.410;2023-03-11T02:52:39;2.10;99.90
13389;DHT22;6764;53.250;10.410;2023-03-11T02:55:06;2.10;99.90
13389;DHT22;6764;53.250;10.410;2023-03-11T02:57:32;2.20;99.90
13389;DHT22;6764;53.250;10.410;2023-03-11T02:59:57;2.20;99.90
13389;DHT22;6764;53.250;10.410;2023-03-11T03:02:24;2.20;99.90
13389;DHT22;6764;53.250;10.410;2023-03-11T03:04:50;2.20;99.90
13389;DHT22;6764;53.250;10.410;2023-03-11T03:07:15;2.20;99.90
13389;DHT22;6764;53.250;10.410;2023-03-11T03:09:41;2.20;99.90
13389;DHT22;6764;53.250;10.410;2023-03-11T03:12:07;2.10;99.90
13389;DHT22;6764;53.250;10.410;2023-03-11T03:14:32;2.10;99.90
13389;DHT22;6764;53.250;10.410;2023-03-11T03:16:58;2.10;99.90
13389;DHT22;6764;53.250;10.410;2023-03-11T03:19:24;2.10;99.90
13389;DHT22;6764;53.250;10.410;2023-03-11T03:21:49;2.20;99.90
13389;DHT22;6764;53.250;10.410;2023-03-11T03:24:15;2.20;99.90
13389;DHT22;6764;53.250;10.410;2023-03-11T03:26:40;2.10;99.90
13389;DHT22;6764;53.250;10.410;2023-03-11T03:29:06;2.10;99.90
13389;DHT22;6764;53.250;10.410;2023-03-11T03:31:32;2.10;99.90
13389;DHT22;6764;53.250;10.410;2023-03-11T03:33:57;2.10;99.90
13389;DHT22;6764;53.250;10.410;2023-03-11T03:36:23;2.20;99.90
13389;DHT22;6764;53.250;10.410;2023-03-11T03:38:53;2.30;99.90
13389;DHT22;6764;53.250;10.410;2023-03-11T03:41:20;2.30;99.90
13389;DHT22;6764;53.250;10.410;2023-03-11T03:43:45;2.30;99.90
13389;DHT22;6764;53.250;10.410;2023-03-11T03:46:11;2.30;99.90
13389;DHT22;6764;53.250;10.410;2023-03-11T03:48:37;2.30;99.90
13389;DHT22;6764;53.250;10.410;2023-03-11T03:51:04;2.20;99.90
13389;DHT22;6764;53.250;10.410;2023-03-11T03:53:33;2.20;99.90
13389;DHT22;6764;53.250;10.410;2023-03-11T03:56:04;2.20;99.90
13389;DHT22;6764;53.250;10.410;2023-03-11T03:58:30;2.10;99.90
13389;DHT22;6764;53.250;10.410;2023-03-11T04:00:57;2.10;99.90
13389;DHT22;6764;53.250;10.410;2023-03-11T04:03:24;2.10;99.90
13389;DHT22;6764;53.250;10.410;2023-03-11T04:05:49;2.10;99.90
13389;DHT22;6764;53.250;10.410;2023-03-11T04:08:15;2.10;99.90
13389;DHT22;6764;53.250;10.410;2023-03-11T04:10:41;2.10;99.90
13389;DHT22;6764;53.250;10.410;2023-03-11T04:13:06;2.00;99.90
13389;DHT22;6764;53.250;10.410;2023-03-11T04:15:32;2.10;99.90
13389;DHT22;6764;53.250;10.410;2023-03-11T04:17:57;2.00;99.90
13389;DHT22;6764;53.250;10.410;2023-03-11T04:20:23;1.90;99.90
13389;DHT22;6764;53.250;10.410;2023-03-11T04:22:49;1.90;99.90
13389;DHT22;6764;53.250;10.410;2023-03-11T04:25:14;2.00;99.90
13389;DHT22;6764;53.250;10.410;2023-03-11T04:27:40;1.90;99.90
13389;DHT22;6764;53.250;10.410;2023-03-11T04:30:11;1.90;99.90
13389;DHT22;6764;53.250;10.410;2023-03-11T04:32:37;1.90;99.90
13389;DHT22;6764;53.250;10.410;2023-03-11T04:35:04;1.90;99.90
13389;DHT22;6764;53.250;10.410;2023-03-11T04:37:29;1.90;99.90
13389;DHT22;6764;53.250;10.410;2023-03-11T04:39:55;1.90;99.90
13389;DHT22;6764;53.250;10.410;2023-03-11T04:42:21;1.90;99.90
13389;DHT22;6764;53.250;10.410;2023-03-11T04:44:46;1.80;99.90
13389;DHT22;6764;53.250;10.410;2023-03-11T04:47:12;1.80;99.90
13389;DHT22;6764;53.250;10.410;2023-03-11T04:49:37;1.80;99.90
13389;DHT22;6764;53.250;10.410;2023-03-11T04:52:03;1.70;99.90
13389;DHT22;6764;53.250;10.410;2023-03-11T04:54:29;1.70;99.90
13389;DHT22;6764;53.250;10.410;2023-03-11T04:56:55;1.80;99.90
13389;DHT22;6764;53.250;10.410;2023-03-11T04:59:20;1.80;99.90
13389;DHT22;6764;53.250;10.410;2023-03-11T05:01:46;1.80;99.90
13389;DHT22;6764;53.250;10.410;2023-03-11T05:04:11;1.80;99.90
13389;DHT22;6764;53.250;10.410;2023-03-11T05:06:37;1.90;99.90
13389;DHT22;6764;53.250;10.410;2023-03-11T05:09:03;2.00;99.90
13389;DHT22;6764;53.250;10.410;2023-03-11T05:11:29;2.00;99.90
13389;DHT22;6764;53.250;10.410;2023-03-11T05:13:55;1.90;99.90
13389;DHT22;6764;53.250;10.410;2023-03-11T05:16:20;1.90;99.90
13389;DHT22;6764;53.250;10.410;2023-03-11T05:18:46;1.80;99.90
13389;DHT22;6764;53.250;10.410;2023-03-11T05:21:12;1.80;99.90
13389;DHT22;6764;53.250;10.410;2023-03-11T05:23:38;1.90;99.90
13389;DHT22;6764;53.250;10.410;2023-03-11T05:26:03;1.90;99.90
13389;DHT22;6764;53.250;10.410;2023-03-11T05:28:29;1.90;99.90
13389;DHT22;6764;53.250;10.410;2023-03-11T05:30:55;1.80;99.90
13389;DHT22;6764;53.250;10.410;2023-03-11T05:33:20;1.90;99.90
13389;DHT22;6764;53.250;10.410;2023-03-11T05:35:46;1.80;99.90
13389;DHT22;6764;53.250;10.410;2023-03-11T05:38:12;1.80;99.90
13389;DHT22;6764;53.250;10.410;2023-03-11T05:40:37;1.70;99.90
13389;DHT22;6764;53.250;10.410;2023-03-11T05:43:03;1.70;99.90
13389;DHT22;6764;53.250;10.410;2023-03-11T05:45:29;1.70;99.90
13389;DHT22;6764;53.250;10.410;2023-03-11T05:47:54;1.70;99.90
13389;DHT22;6764;53.250;10.410;2023-03-11T05:50:20;1.70;99.90
13389;DHT22;6764;53.250;10.410;2023-03-11T05:52:45;1.60;99.90
13389;DHT22;6764;53.250;10.410;2023-03-11T05:55:11;1.60;99.90
13389;DHT22;6764;53.250;10.410;2023-03-11T05:57:38;1.70;99.90
13389;DHT22;6764;53.250;10.410;2023-03-11T06:00:05;1.70;99.90
13389;DHT22;6764;53.250;10.410;2023-03-11T06:02:31;1.80;99.90
13389;DHT22;6764;53.250;10.410;2023-03-11T06:04:57;1.70;99.90
13389;DHT22;6764;53.250;10.410;2023-03-11T06:07:23;1.60;99.90
13389;DHT22;6764;53.250;10.410;2023-03-11T06:09:49;1.60;99.90
13389;DHT22;6764;53.250;10.410;2023-03-11T06:12:14;1.50;99.90
13389;DHT22;6764;53.250;10.410;2023-03-11T06:14:40;1.50;99.90
13389;DHT22;6764;53.250;10.410;2023-03-11T06:17:06;1.40;99.90
13389;DHT22;6764;53.250;10.410;2023-03-11T06:19:31;1.40;99.90
13389;DHT22;6764;53.250;10.410;2023-03-11T06:21:57;1.30;99.90
13389;DHT22;6764;53.250;10.410;2023-03-11T06:24:22;1.30;99.90
13389;DHT22;6764;53.250;10.410;2023-03-11T06:26:51;1.30;99.90
13389;DHT22;6764;53.250;10.410;2023-03-11T06:29:17;1.30;99.90
13389;DHT22;6764;53.250;10.410;2023-03-11T06:31:42;1.40;99.90
13389;DHT22;6764;53.250;10.410;2023-03-11T06:34:09;1.50;99.90
13389;DHT22;6764;53.250;10.410;2023-03-11T06:36:35;1.60;99.90
13389;DHT22;6764;53.250;10.410;2023-03-11T06:39:02;1.70;99.90
13389;DHT22;6764;53.250;10.410;2023-03-11T06:41:28;1.70;99.90
13389;DHT22;6764;53.250;10.410;2023-03-11T06:43:57;1.70;99.90
13389;DHT22;6764;53.250;10.410;2023-03-11T06:46:24;1.70;99.90
13389;DHT22;6764;53.250;10.410;2023-03-11T06:48:49;1.90;99.90
13389;DHT22;6764;53.250;10.410;2023-03-11T06:51:17;1.90;99.90
13389;DHT22;6764;53.250;10.410;2023-03-11T06:53:43;2.00;99.90
13389;DHT22;6764;53.250;10.410;2023-03-11T06:56:12;2.00;99.90
13389;DHT22;6764;53.250;10.410;2023-03-11T06:58:40;2.10;99.90
13389;DHT22;6764;53.250;10.410;2023-03-11T07:01:11;2.20;99.90
13389;DHT22;6764;53.250;10.410;2023-03-11T07:03:37;2.20;99.90
13389;DHT22;6764;53.250;10.410;2023-03-11T07:06:03;2.20;99.90
13389;DHT22;6764;53.250;10.410;2023-03-11T07:08:29;2.20;99.90
13389;DHT22;6764;53.250;10.410;2023-03-11T07:11:07;2.20;99.90
13389;DHT22;6764;53.250;10.410;2023-03-11T07:13:33;2.20;99.90
13389;DHT22;6764;53.250;10.410;2023-03-11T07:16:04;2.20;99.90
13389;DHT22;6764;53.250;10.410;2023-03-11T07:18:30;2.10;99.90
13389;DHT22;6764;53.250;10.410;2023-03-11T07:20:56;2.00;99.90
13389;DHT22;6764;53.250;10.410;2023-03-11T07:23:22;2.10;99.90
13389;DHT22;6764;53.250;10.410;2023-03-11T07:25:48;2.10;99.90
13389;DHT22;6764;53.250;10.410;2023-03-11T07:28:14;2.10;99.90
13389;DHT22;6764;53.250;10.410;2023-03-11T07:30:40;2.10;99.90
13389;DHT22;6764;53.250;10.410;2023-03-11T07:33:06;2.20;99.90
13389;DHT22;6764;53.250;10.410;2023-03-11T07:35:33;2.20;99.90
13389;DHT22;6764;53.250;10.410;2023-03-11T07:37:59;2.20;99.90
13389;DHT22;6764;53.250;10.410;2023-03-11T07:40:25;2.30;99.90
13389;DHT22;6764;53.250;10.410;2023-03-11T07:42:50;2.30;99.90
13389;DHT22;6764;53.250;10.410;2023-03-11T07:45:16;2.30;99.90
13389;DHT22;6764;53.250;10.410;2023-03-11T07:47:42;2.50;99.90
13389;DHT22;6764;53.250;10.410;2023-03-11T07:50:08;2.50;99.90
13389;DHT22;6764;53.250;10.410;2023-03-11T07:52:33;2.50;99.90
13389;DHT22;6764;53.250;10.410;2023-03-11T07:54:59;2.70;99.90
13389;DHT22;6764;53.250;10.410;2023-03-11T07:57:25;2.70;99.90
13389;DHT22;6764;53.250;10.410;2023-03-11T07:59:50;2.80;99.90
13389;DHT22;6764;53.250;10.410;2023-03-11T08:02:16;2.80;99.90
13389;DHT22;6764;53.250;10.410;2023-03-11T08:04:41;2.80;99.90
13389;DHT22;6764;53.250;10.410;2023-03-11T08:07:07;2.90;99.90
13389;DHT22;6764;53.250;10.410;2023-03-11T08:09:34;3.00;99.90
13389;DHT22;6764;53.250;10.410;2023-03-11T08:12:00;3.20;99.90
13389;DHT22;6764;53.250;10.410;2023-03-11T08:14:26;3.20;99.90
13389;DHT22;6764;53.250;10.410;2023-03-11T08:16:51;3.40;99.90
13389;DHT22;6764;53.250;10.410;2023-03-11T08:19:17;3.50;99.90
13389;DHT22;6764;53.250;10.410;2023-03-11T08:21:43;3.60;99.90
13389;DHT22;6764;53.250;10.410;2023-03-11T08:24:11;3.70;99.90
13389;DHT22;6764;53.250;10.410;2023-03-11T08:26:37;3.80;99.90
13389;DHT22;6764;53.250;10.410;2023-03-11T08:29:03;3.90;99.90
13389;DHT22;6764;53.250;10.410;2023-03-11T08:31:30;3.90;99.90
13389;DHT22;6764;53.250;10.410;2023-03-11T08:33:58;3.70;99.90
13389;DHT22;6764;53.250;10.410;2023-03-11T08:36:25;3.60;99.90
13389;DHT22;6764;53.250;10.410;2023-03-11T08:38:51;3.70;99.90
13389;DHT22;6764;53.250;10.410;2023-03-11T08:41:17;3.60;99.90
13389;DHT22;6764;53.250;10.410;2023-03-11T08:43:43;3.40;99.90
13389;DHT22;6764;53.250;10.410;2023-03-11T08:46:14;3.40;99.90
13389;DHT22;6764;53.250;10.410;2023-03-11T08:48:42;3.40;99.90
13389;DHT22;6764;53.250;10.410;2023-03-11T08:51:11;3.30;99.90
13389;DHT22;6764;53.250;10.410;2023-03-11T08:53:37;3.30;99.90
13389;DHT22;6764;53.250;10.410;2023-03-11T08:56:03;3.20;99.90
13389;DHT22;6764;53.250;10.410;2023-03-11T08:58:29;3.30;99.90
13389;DHT22;6764;53.250;10.410;2023-03-11T09:00:54;3.30;99.90
13389;DHT22;6764;53.250;10.410;2023-03-11T09:03:20;3.60;99.90
13389;DHT22;6764;53.250;10.410;2023-03-11T09:05:45;4.00;99.90
13389;DHT22;6764;53.250;10.410;2023-03-11T09:08:11;5.00;99.90
13389;DHT22;6764;53.250;10.410;2023-03-11T09:10:37;6.20;99.90
13389;DHT22;6764;53.250;10.410;2023-03-11T09:13:02;8.10;99.90
13389;DHT22;6764;53.250;10.410;2023-03-11T09:15:28;10.10;99.90
13389;DHT22;6764;53.250;10.410;2023-03-11T09:17:54;11.90;99.90
13389;DHT22;6764;53.250;10.410;2023-03-11T09:20:20;12.60;99.90
13389;DHT22;6764;53.250;10.410;2023-03-11T09:22:46;13.10;99.90
13389;DHT22;6764;53.250;10.410;2023-03-11T09:25:12;14.30;99.90
13389;DHT22;6764;53.250;10.410;2023-03-11T09:27:38;16.00;98.20
13389;DHT22;6764;53.250;10.410;2023-03-11T09:30:06;17.10;94.30
13389;DHT22;6764;53.250;10.410;2023-03-11T09:32:32;17.50;91.20
13389;DHT22;6764;53.250;10.410;2023-03-11T09:34:57;18.10;90.10
13389;DHT22;6764;53.250;10.410;2023-03-11T09:39:51;19.80;86.90
13389;DHT22;6764;53.250;10.410;2023-03-11T09:42:21;21.00;84.30
13389;DHT22;6764;53.250;10.410;2023-03-11T09:45:23;21.50;76.40
13389;DHT22;6764;53.250;10.410;2023-03-11T09:51:14;21.70;70.40
13389;DHT22;6764;53.250;10.410;2023-03-11T09:53:39;21.30;70.00
13389;DHT22;6764;53.250;10.410;2023-03-11T09:56:14;21.80;66.90
13389;DHT22;6764;53.250;10.410;2023-03-11T09:59:13;21.90;67.70
13389;DHT22;6764;53.250;10.410;2023-03-11T10:01:47;21.80;65.20
13389;DHT22;6764;53.250;10.410;2023-03-11T10:04:25;22.20;65.80
13389;DHT22;6764;53.250;10.410;2023-03-11T10:06:52;22.40;64.90
13389;DHT22;6764;53.250;10.410;2023-03-11T10:09:40;22.00;62.00
13389;DHT22;6764;53.250;10.410;2023-03-11T10:12:54;21.50;61.10
13389;DHT22;6764;53.250;10.410;2023-03-11T10:26:36;20.80;63.00
13389;DHT22;6764;53.250;10.410;2023-03-11T10:29:29;20.20;64.50
13389;DHT22;6764;53.250;10.410;2023-03-11T10:34:35;20.80;62.60
13389;DHT22;6764;53.250;10.410;2023-03-11T10:37:10;21.20;62.50
13389;DHT22;6764;53.250;10.410;2023-03-11T10:39:36;21.70;62.20
13389;DHT22;6764;53.250;10.410;2023-03-11T10:42:05;21.60;62.00
13389;DHT22;6764;53.250;10.410;2023-03-11T10:44:36;21.90;62.90
13389;DHT22;6764;53.250;10.410;2023-03-11T10:47:03;22.30;61.90
13389;DHT22;6764;53.250;10.410;2023-03-11T10:49:30;22.40;60.70
13389;DHT22;6764;53.250;10.410;2023-03-11T10:51:56;21.80;59.90
13389;DHT22;6764;53.250;10.410;2023-03-11T10:54:43;20.60;59.90
13389;DHT22;6764;53.250;10.410;2023-03-11T10:57:34;20.30;62.80
13389;DHT22;6764;53.250;10.410;2023-03-11T11:00:03;20.70;64.30
13389;DHT22;6764;53.250;10.410;2023-03-11T11:02:52;20.50;62.50
13389;DHT22;6764;53.250;10.410;2023-03-11T11:05:27;19.80;61.10
13389;DHT22;6764;53.250;10.410;2023-03-11T11:10:32;19.20;63.10
13389;DHT22;6764;53.250;10.410;2023-03-11T11:13:28;18.70;65.70
13389;DHT22;6764;53.250;10.410;2023-03-11T11:16:18;17.90;65.80
13389;DHT22;6764;53.250;10.410;2023-03-11T11:19:01;17.80;67.90
13389;DHT22;6764;53.250;10.410;2023-03-11T11:21:36;17.10;68.40
13389;DHT22;6764;53.250;10.410;2023-03-11T11:24:31;17.20;70.30
13389;DHT22;6764;53.250;10.410;2023-03-11T11:29:36;16.80;68.70
13389;DHT22;6764;53.250;10.410;2023-03-11T11:37:21;16.20;69.70
13389;DHT22;6764;53.250;10.410;2023-03-11T11:39:58;15.90;71.30
13389;DHT22;6764;53.250;10.410;2023-03-11T11:42:27;15.80;72.40
13389;DHT22;6764;53.250;10.410;2023-03-11T11:45:09;15.80;74.60
13389;DHT22;6764;53.250;10.410;2023-03-11T11:47:46;15.10;75.90
13389;DHT22;6764;53.250;10.410;2023-03-11T11:50:34;14.70;76.70
13389;DHT22;6764;53.250;10.410;2023-03-11T11:55:51;14.90;76.70
13389;DHT22;6764;53.250;10.410;2023-03-11T11:58:19;14.50;76.70
13389;DHT22;6764;53.250;10.410;2023-03-11T12:01:01;13.80;79.40
13389;DHT22;6764;53.250;10.410;2023-03-11T12:03:42;13.30;82.30
13389;DHT22;6764;53.250;10.410;2023-03-11T12:08:59;12.60;85.00
13389;DHT22;6764;53.250;10.410;2023-03-11T12:11:34;12.70;87.40
13389;DHT22;6764;53.250;10.410;2023-03-11T12:14:36;12.30;85.50
13389;DHT22;6764;53.250;10.410;2023-03-11T12:17:04;11.70;87.70
13389;DHT22;6764;53.250;10.410;2023-03-11T12:25:39;10.50;91.20
13389;DHT22;6764;53.250;10.410;2023-03-11T14:48:21;6.70;99.90
13389;DHT22;6764;53.250;10.410;2023-03-11T14:50:49;6.60;99.90
13389;DHT22;6764;53.250;10.410;2023-03-11T14:53:27;6.50;99.90
13389;DHT22;6764;53.250;10.410;2023-03-11T14:55:58;6.50;99.90
13389;DHT22;6764;53.250;10.410;2023-03-11T14:58:42;6.70;99.90
13389;DHT22;6764;53.250;10.410;2023-03-11T15:01:30;6.60;99.90
13389;DHT22;6764;53.250;10.410;2023-03-11T15:04:07;6.60;99.90
13389;DHT22;6764;53.250;10.410;2023-03-11T15:06:34;6.70;99.90
13389;DHT22;6764;53.250;10.410;2023-03-11T15:09:07;6.60;99.90
13389;DHT22;6764;53.250;10.410;2023-03-11T15:11:58;6.60;99.90
13389;DHT22;6764;53.250;10.410;2023-03-11T15:14:36;6.60;99.90
13389;DHT22;6764;53.250;10.410;2023-03-11T15:17:22;6.70;99.90
13389;DHT22;6764;53.250;10.410;2023-03-11T15:19:53;6.80;99.90
13389;DHT22;6764;53.250;10.410;2023-03-11T15:25:02;6.70;99.90
13389;DHT22;6764;53.250;10.410;2023-03-11T15:27:37;6.50;99.90
13389;DHT22;6764;53.250;10.410;2023-03-11T15:32:45;6.30;99.90
13389;DHT22;6764;53.250;10.410;2023-03-11T15:35:21;6.30;99.90
13389;DHT22;6764;53.250;10.410;2023-03-11T15:37:49;6.30;99.90
13389;DHT22;6764;53.250;10.410;2023-03-11T15:40:20;6.30;99.90
13389;DHT22;6764;53.250;10.410;2023-03-11T15:42:47;6.20;99.90
13389;DHT22;6764;53.250;10.410;2023-03-11T15:45:17;6.10;99.90
13389;DHT22;6764;53.250;10.410;2023-03-11T15:47:44;6.10;99.90
13389;DHT22;6764;53.250;10.410;2023-03-11T15:50:18;6.00;99.90
13389;DHT22;6764;53.250;10.410;2023-03-11T15:52:45;5.90;99.90
13389;DHT22;6764;53.250;10.410;2023-03-11T15:55:11;5.90;99.90
13389;DHT22;6764;53.250;10.410;2023-03-11T15:57:37;5.80;99.90
13389;DHT22;6764;53.250;10.410;2023-03-11T16:00:06;5.80;99.90
13389;DHT22;6764;53.250;10.410;2023-03-11T16:02:32;5.60;99.90
13389;DHT22;6764;53.250;10.410;2023-03-11T16:04:58;5.60;99.90
13389;DHT22;6764;53.250;10.410;2023-03-11T16:07:24;5.60;99.90
13389;DHT22;6764;53.250;10.410;2023-03-11T16:09:49;5.60;99.90
13389;DHT22;6764;53.250;10.410;2023-03-11T16:12:18;5.50;99.90
13389;DHT22;6764;53.250;10.410;2023-03-11T16:14:45;5.50;99.90
13389;DHT22;6764;53.250;10.410;2023-03-11T16:17:11;5.50;99.90
13389;DHT22;6764;53.250;10.410;2023-03-11T16:19:45;5.60;99.90
13389;DHT22;6764;53.250;10.410;2023-03-11T16:22:18;5.50;99.90
13389;DHT22;6764;53.250;10.410;2023-03-11T16:24:50;5.40;99.90
13389;DHT22;6764;53.250;10.410;2023-03-11T16:27:17;5.30;99.90
13389;DHT22;6764;53.250;10.410;2023-03-11T16:29:44;5.30;99.90
13389;DHT22;6764;53.250;10.410;2023-03-11T16:32:09;5.20;99.90
13389;DHT22;6764;53.250;10.410;2023-03-11T16:34:39;5.10;99.90
13389;DHT22;6764;53.250;10.410;2023-03-11T16:37:05;5.00;99.90
13389;DHT22;6764;53.250;10.410;2023-03-11T16:39:32;5.00;99.90
13389;DHT22;6764;53.250;10.410;2023-03-11T16:41:59;4.90;99.90
13389;DHT22;6764;53.250;10.410;2023-03-11T16:44:25;4.90;99.90
13389;DHT22;6764;53.250;10.410;2023-03-11T16:46:51;4.90;99.90
13389;DHT22;6764;53.250;10.410;2023-03-11T16:49:16;4.90;99.90
13389;DHT22;6764;53.250;10.410;2023-03-11T16:51:42;4.90;99.90
13389;DHT22;6764;53.250;10.410;2023-03-11T16:54:07;5.00;99.90
13389;DHT22;6764;53.250;10.410;2023-03-11T16:56:34;4.90;99.90
13389;DHT22;6764;53.250;10.410;2023-03-11T16:59:00;4.90;99.90
13389;DHT22;6764;53.250;10.410;2023-03-11T17:01:27;5.00;99.90
13389;DHT22;6764;53.250;10.410;2023-03-11T17:03:52;5.10;99.90
13389;DHT22;6764;53.250;10.410;2023-03-11T17:06:19;5.10;99.90
13389;DHT22;6764;53.250;10.410;2023-03-11T17:08:46;5.10;99.90
13389;DHT22;6764;53.250;10.410;2023-03-11T17:11:23;5.10;99.90
13389;DHT22;6764;53.250;10.410;2023-03-11T17:13:52;5.10;99.90
13389;DHT22;6764;53.250;10.410;2023-03-11T17:16:18;5.10;99.90
13389;DHT22;6764;53.250;10.410;2023-03-11T17:18:43;5.00;99.90
13389;DHT22;6764;53.250;10.410;2023-03-11T17:21:12;5.00;99.90
13389;DHT22;6764;53.250;10.410;2023-03-11T17:23:38;5.00;99.90
13389;DHT22;6764;53.250;10.410;2023-03-11T17:26:14;5.10;99.90
13389;DHT22;6764;53.250;10.410;2023-03-11T17:28:42;5.00;99.90
13389;DHT22;6764;53.250;10.410;2023-03-11T17:31:12;5.00;99.90
13389;DHT22;6764;53.250;10.410;2023-03-11T17:33:38;5.00;99.90
13389;DHT22;6764;53.250;10.410;2023-03-11T17:36:05;4.90;99.90
13389;DHT22;6764;53.250;10.410;2023-03-11T17:38:31;4.90;99.90
13389;DHT22;6764;53.250;10.410;2023-03-11T17:40:57;4.90;99.90
13389;DHT22;6764;53.250;10.410;2023-03-11T17:43:23;4.90;99.90
13389;DHT22;6764;53.250;10.410;2023-03-11T17:45:49;4.90;99.90
13389;DHT22;6764;53.250;10.410;2023-03-11T17:48:14;4.90;99.90
13389;DHT22;6764;53.250;10.410;2023-03-11T17:50:40;5.00;99.90
13389;DHT22;6764;53.250;10.410;2023-03-11T17:53:06;4.80;99.90
13389;DHT22;6764;53.250;10.410;2023-03-11T17:55:32;4.70;99.90
13389;DHT22;6764;53.250;10.410;2023-03-11T17:57:58;4.50;99.90
13389;DHT22;6764;53.250;10.410;2023-03-11T18:00:24;4.50;99.90
13389;DHT22;6764;53.250;10.410;2023-03-11T18:02:50;4.40;99.90
13389;DHT22;6764;53.250;10.410;2023-03-11T18:05:17;4.40;99.90
13389;DHT22;6764;53.250;10.410;2023-03-11T18:07:42;4.30;99.90
13389;DHT22;6764;53.250;10.410;2023-03-11T18:10:09;4.20;99.90
13389;DHT22;6764;53.250;10.410;2023-03-11T18:12:35;4.10;99.90
13389;DHT22;6764;53.250;10.410;2023-03-11T18:15:02;4.00;99.90
13389;DHT22;6764;53.250;10.410;2023-03-11T18:17:30;3.90;99.90
13389;DHT22;6764;53.250;10.410;2023-03-11T18:19:57;3.90;99.90
13389;DHT22;6764;53.250;10.410;2023-03-11T18:22:24;3.90;99.90
13389;DHT22;6764;53.250;10.410;2023-03-11T18:24:49;3.80;99.90
13389;DHT22;6764;53.250;10.410;2023-03-11T18:27:15;3.70;99.90
13389;DHT22;6764;53.250;10.410;2023-03-11T18:29:41;3.60;99.90
13389;DHT22;6764;53.250;10.410;2023-03-11T18:32:06;3.60;99.90
13389;DHT22;6764;53.250;10.410;2023-03-11T18:34:32;3.50;99.90
13389;DHT22;6764;53.250;10.410;2023-03-11T18:36:58;3.50;99.90
13389;DHT22;6764;53.250;10.410;2023-03-11T18:39:23;3.40;99.90
13389;DHT22;6764;53.250;10.410;2023-03-11T18:41:49;3.40;99.90
13389;DHT22;6764;53.250;10.410;2023-03-11T18:44:15;3.40;99.90
13389;DHT22;6764;53.250;10.410;2023-03-11T18:46:40;3.40;99.90
13389;DHT22;6764;53.250;10.410;2023-03-11T18:49:09;3.40;99.90
13389;DHT22;6764;53.250;10.410;2023-03-11T18:51:35;3.30;99.90
13389;DHT22;6764;53.250;10.410;2023-03-11T18:54:01;3.30;99.90
13389;DHT22;6764;53.250;10.410;2023-03-11T18:56:27;3.30;99.90
13389;DHT22;6764;53.250;10.410;2023-03-11T18:58:56;3.30;99.90
13389;DHT22;6764;53.250;10.410;2023-03-11T19:01:22;3.20;99.90
13389;DHT22;6764;53.250;10.410;2023-03-11T19:03:50;3.20;99.90